Time;durP1;ratioP1;P1;durP2;ratioP2;P2;SDS_P1;SDS_P2;PMS_P1;PMS_P2;Temp;Humidity;BMP_temperature;BMP_pressure;BME280_temperature;BME280_humidity;BME280_pressure;Samples;Min_cycle;Max_cycle;Signal;HPM_P1;HPM_P2
2022/08/01 00:01:56;;;;;;;15.93;8.07;;;;;;;-145.18;100.00;46656.50;4991574;28;20436;-70
2022/08/01 00:04:21;;;;;;;12.33;7.77;;;;;;;-145.18;100.00;46656.50;4991544;28;20158;-70
2022/08/01 00:06:47;;;;;;;15.20;7.77;;;;;;;-145.18;100.00;46660.41;4991687;28;20042;-71
2022/08/01 00:09:12;;;;;;;10.83;7.57;;;;;;;-145.18;100.00;46658.44;4991504;28;20030;-70
2022/08/01 00:11:37;;;;;;;10.50;6.73;;;;;;;-145.18;100.00;46656.50;4991314;28;20034;-70
2022/08/01 00:14:03;;;;;;;12.60;7.50;;;;;;;-145.18;100.00;46660.41;4991600;28;20134;-70
2022/08/01 00:16:28;;;;;;;12.00;6.97;;;;;;;-145.18;100.00;46660.41;4991597;28;20034;-70
2022/08/01 00:18:55;;;;;;;14.63;7.13;;;;;;;-145.18;100.00;46660.41;4991732;28;20562;-70
2022/08/01 00:21:21;;;;;;;13.30;8.20;;;;;;;-145.18;100.00;46658.44;4973772;28;20497;-70
2022/08/01 00:23:46;;;;;;;13.27;8.10;;;;;;;-145.18;100.00;46660.41;4991900;28;20030;-70
2022/08/01 00:26:13;;;;;;;14.23;8.23;;;;;;;-145.18;100.00;46660.41;4991120;28;20478;-70
2022/08/01 00:28:38;;;;;;;15.07;8.27;;;;;;;-145.18;100.00;46660.41;4991258;28;20395;-71
2022/08/01 00:31:03;;;;;;;14.33;8.20;;;;;;;-145.18;100.00;46656.50;4973913;28;20042;-71
2022/08/01 00:33:29;;;;;;;14.87;8.50;;;;;;;-145.18;100.00;46656.50;4990866;28;20114;-70
2022/08/01 00:35:54;;;;;;;14.93;8.43;;;;;;;-145.18;100.00;46656.50;4991364;28;20046;-70
2022/08/01 00:38:20;;;;;;;17.13;8.50;;;;;;;-145.18;100.00;46656.50;4990895;28;20045;-70
2022/08/01 00:40:45;;;;;;;15.30;8.40;;;;;;;-145.18;100.00;46656.50;4973751;28;20034;-70
2022/08/01 00:43:10;;;;;;;14.77;8.80;;;;;;;-145.18;100.00;46660.41;4990936;28;20559;-71
2022/08/01 00:45:36;;;;;;;12.90;8.33;;;;;;;-145.18;100.00;46658.44;4991252;28;20053;-70
2022/08/01 00:48:01;;;;;;;15.77;9.23;;;;;;;-145.18;100.00;46658.44;4989981;28;20050;-71
2022/08/01 00:50:27;;;;;;;20.43;9.30;;;;;;;-145.18;100.00;46658.44;4991184;28;20042;-71
2022/08/01 00:52:53;;;;;;;16.87;9.73;;;;;;;-145.18;100.00;46658.44;4990793;28;20105;-71
2022/08/01 00:55:20;;;;;;;19.20;9.90;;;;;;;-145.18;100.00;46656.50;4990855;28;20049;-70
2022/08/01 00:57:46;;;;;;;14.47;9.00;;;;;;;-145.18;100.00;46656.50;4990992;28;20110;-71
2022/08/01 01:00:12;;;;;;;17.23;9.00;;;;;;;-145.18;100.00;46658.44;4989695;28;20641;-71
2022/08/01 01:02:37;;;;;;;18.67;9.10;;;;;;;-145.18;100.00;46654.53;4990672;28;20026;-71
2022/08/01 01:05:03;;;;;;;16.73;9.17;;;;;;;-145.18;100.00;46660.41;4990893;28;20054;-71
2022/08/01 01:07:44;;;;;;;20.13;9.53;;;;;;;-145.18;100.00;46660.41;4990638;28;20511;-71
2022/08/01 01:10:32;;;;;;;17.00;8.77;;;;;;;-145.18;100.00;46656.50;4990822;28;20029;-70
2022/08/01 01:13:27;;;;;;;13.33;8.90;;;;;;;-145.18;100.00;46656.50;4994836;28;20030;-71
2022/08/01 01:16:00;;;;;;;14.33;8.43;;;;;;;-145.18;100.00;46660.41;4995047;28;20029;-71
2022/08/01 01:18:34;;;;;;;16.03;9.57;;;;;;;-145.18;100.00;46660.41;4994372;28;20102;-70
2022/08/01 01:21:17;;;;;;;17.00;9.17;;;;;;;-145.18;100.00;46658.44;4994967;28;20026;-70
2022/08/01 01:23:54;;;;;;;19.10;10.03;;;;;;;-145.18;100.00;46656.50;4994669;28;20085;-71
2022/08/01 01:26:37;;;;;;;19.47;11.23;;;;;;;-145.18;100.00;46652.59;4994702;28;20498;-71
2022/08/01 01:29:13;;;;;;;13.40;9.07;;;;;;;-145.18;100.00;46660.41;4994525;28;20033;-71
2022/08/01 01:32:02;;;;;;;19.07;9.67;;;;;;;-145.18;100.00;46660.41;4994477;28;20041;-70
2022/08/01 01:34:29;;;;;;;17.63;9.53;;;;;;;-145.18;100.00;46656.50;4994468;28;20056;-71
2022/08/01 01:36:59;;;;;;;14.80;9.87;;;;;;;-145.18;100.00;46656.50;4976791;28;20041;-70
2022/08/01 01:39:28;;;;;;;15.83;10.17;;;;;;;-145.18;100.00;46656.50;4994522;28;20049;-71
2022/08/01 01:41:55;;;;;;;16.00;9.80;;;;;;;-145.18;100.00;46658.44;4993970;28;20034;-71
2022/08/01 01:44:21;;;;;;;17.93;10.30;;;;;;;-145.18;100.00;46656.50;4994294;28;20384;-71
2022/08/01 01:46:48;;;;;;;17.10;10.07;;;;;;;-145.18;100.00;46656.50;4994037;28;20038;-71
2022/08/01 01:49:14;;;;;;;17.23;9.90;;;;;;;-145.18;100.00;46654.53;4994348;28;20486;-71
2022/08/01 01:51:42;;;;;;;20.10;10.33;;;;;;;-145.18;100.00;46658.44;4993955;28;20122;-71
2022/08/01 01:54:09;;;;;;;17.93;11.10;;;;;;;-145.18;100.00;46656.50;4993934;28;20041;-71
2022/08/01 01:56:48;;;;;;;19.37;9.77;;;;;;;-145.18;100.00;46656.50;4994006;28;20088;-71
2022/08/01 01:59:21;;;;;;;21.33;10.27;;;;;;;-145.18;100.00;46658.44;4994081;28;20034;-71
2022/08/01 02:04:14;;;;;;;17.40;9.97;;;;;;;-145.18;100.00;46654.53;5012994;23;20624;-70
2022/08/01 02:06:41;;;;;;;18.10;10.30;;;;;;;-145.18;100.00;46660.41;5001161;28;20030;-70
2022/08/01 02:09:08;;;;;;;15.47;10.00;;;;;;;-145.18;100.00;46656.50;4992996;28;20037;-71
2022/08/01 02:11:36;;;;;;;14.47;9.07;;;;;;;-145.18;100.00;46656.50;4994005;28;20062;-71
2022/08/01 02:14:03;;;;;;;17.00;9.27;;;;;;;-145.18;100.00;46656.50;4993429;28;20042;-71
2022/08/01 02:16:31;;;;;;;15.83;9.63;;;;;;;-145.18;100.00;46658.44;4993887;28;20030;-71
2022/08/01 02:18:57;;;;;;;14.80;8.50;;;;;;;-145.18;100.00;46656.50;4993448;28;20490;-71
2022/08/01 02:21:29;;;;;;;14.03;8.93;;;;;;;-145.18;100.00;46660.41;4993862;28;20069;-71
2022/08/01 02:24:00;;;;;;;15.93;8.47;;;;;;;-145.18;100.00;46658.44;4992273;28;20030;-71
2022/08/01 02:26:27;;;;;;;16.93;8.83;;;;;;;-145.18;100.00;46654.53;4993897;28;20034;-71
2022/08/01 02:28:57;;;;;;;17.43;9.23;;;;;;;-145.18;100.00;46660.41;4993330;28;20038;-71
2022/08/01 02:31:23;;;;;;;15.27;8.57;;;;;;;-145.18;100.00;46656.50;4976014;28;20121;-71
2022/08/01 02:34:09;;;;;;;15.43;8.30;;;;;;;-145.18;100.00;46652.59;4993361;28;20512;-70
2022/08/01 02:36:36;;;;;;;14.90;8.27;;;;;;;-145.18;100.00;46656.50;4975948;28;20027;-71
2022/08/01 02:39:07;;;;;;;17.10;8.20;;;;;;;-145.18;100.00;46658.44;4992811;28;20082;-70
2022/08/01 02:41:39;;;;;;;14.27;8.13;;;;;;;-145.18;100.00;46656.50;4993460;28;20030;-71
2022/08/01 02:44:07;;;;;;;16.73;8.67;;;;;;;-145.18;100.00;46656.50;4992898;28;20019;-71
2022/08/01 02:46:43;;;;;;;18.47;8.80;;;;;;;-145.18;100.00;46654.53;4993422;28;20060;-71
2022/08/01 02:49:09;;;;;;;;;;;;;;;-145.18;100.00;46656.50;4993114;28;20026;-70
2022/08/01 02:51:38;;;;;;;16.13;8.37;;;;;;;-145.18;100.00;46650.63;4993216;28;19914;-70
2022/08/01 02:54:06;;;;;;;20.50;9.03;;;;;;;-145.18;100.00;46658.44;4992598;28;20022;-71
2022/08/01 02:56:36;;;;;;;19.67;9.43;;;;;;;-145.18;100.00;46654.53;4993108;28;20022;-71
2022/08/01 02:59:07;;;;;;;16.67;8.67;;;;;;;-145.18;100.00;46652.59;4992888;28;20026;-71
2022/08/01 03:01:35;;;;;;;19.90;9.50;;;;;;;-145.18;100.00;46658.44;4993034;28;20034;-71
2022/08/01 03:04:01;;;;;;;15.63;8.60;;;;;;;-145.18;100.00;46652.59;4992180;28;20141;-71
2022/08/01 03:06:28;;;;;;;20.33;8.97;;;;;;;-145.18;100.00;46656.50;4992959;28;20037;-71
2022/08/01 03:08:55;;;;;;;13.07;8.30;;;;;;;-145.18;100.00;46656.50;4992755;28;20512;-71
2022/08/01 03:11:23;;;;;;;14.77;8.63;;;;;;;-145.18;100.00;46652.59;4992434;28;20046;-71
2022/08/01 03:13:51;;;;;;;19.60;9.30;;;;;;;-145.18;100.00;46656.50;4992626;28;20030;-71
2022/08/01 03:16:18;;;;;;;20.73;8.67;;;;;;;-145.18;100.00;46650.63;4992467;28;20035;-71
2022/08/01 03:18:45;;;;;;;16.20;8.67;;;;;;;-145.18;100.00;46654.53;4992620;28;20034;-70
2022/08/01 03:21:13;;;;;;;15.83;8.97;;;;;;;-145.18;100.00;46656.50;4992566;28;20787;-71
2022/08/01 03:23:40;;;;;;;18.60;9.27;;;;;;;-145.18;100.00;46656.50;4992061;28;20109;-70
2022/08/01 03:26:06;;;;;;;17.90;8.67;;;;;;;-145.18;100.00;46656.50;4992540;28;20022;-71
2022/08/01 03:28:31;;;;;;;21.33;9.43;;;;;;;-145.18;100.00;46650.63;4992276;28;20449;-71
2022/08/01 03:30:59;;;;;;;19.17;8.90;;;;;;;-145.18;100.00;46650.63;4992222;28;20125;-71
2022/08/01 03:33:25;;;;;;;17.10;9.13;;;;;;;-145.18;100.00;46652.59;4991724;28;20117;-71
2022/08/01 03:35:54;;;;;;;17.17;8.90;;;;;;;-145.18;100.00;46654.53;4992442;28;20547;-71
2022/08/01 03:38:23;;;;;;;14.43;8.10;;;;;;;-145.18;100.00;46656.50;4991737;28;20026;-70
2022/08/01 03:41:08;;;;;;;18.93;8.90;;;;;;;-145.18;100.00;46650.63;4992375;28;20065;-70
2022/08/01 03:43:41;;;;;;;20.00;8.73;;;;;;;-145.18;100.00;46652.59;4991664;28;20069;-70
2022/08/01 03:46:11;;;;;;;13.50;8.23;;;;;;;-145.18;100.00;46642.81;4992190;28;20486;-70
2022/08/01 03:48:42;;;;;;;11.50;7.63;;;;;;;-145.18;100.00;46650.63;4991724;28;20018;-71
2022/08/01 03:51:08;;;;;;;14.20;8.37;;;;;;;-145.18;100.00;46656.50;4991982;28;20426;-71
2022/08/01 03:53:36;;;;;;;13.20;7.43;;;;;;;-145.18;100.00;46652.59;4974409;28;20475;-70
2022/08/01 03:56:03;;;;;;;13.57;8.10;;;;;;;-145.18;100.00;46650.63;4992162;28;20081;-71
2022/08/01 03:58:30;;;;;;;18.40;8.27;;;;;;;-145.18;100.00;46642.81;4991991;28;20180;-71
2022/08/01 04:00:55;;;;;;;13.97;7.87;;;;;;;-145.18;100.00;46650.63;4992129;28;20101;-70
2022/08/01 04:03:22;;;;;;;14.70;6.90;;;;;;;-145.18;100.00;46652.59;4991043;28;20050;-70
2022/08/01 04:05:47;;;;;;;14.40;7.10;;;;;;;-145.18;100.00;46650.63;4992164;28;20033;-70
2022/08/01 04:08:13;;;;;;;12.47;7.90;;;;;;;-145.18;100.00;46650.63;4998156;28;20022;-70
2022/08/01 04:10:38;;;;;;;13.53;7.17;;;;;;;-145.18;100.00;46650.63;5010539;28;20030;-70
2022/08/01 04:13:04;;;;;;;11.93;6.63;;;;;;;-145.18;100.00;46650.63;5010496;28;20120;-71
2022/08/01 04:15:29;;;;;;;13.00;7.17;;;;;;;-145.18;100.00;46650.63;5011020;28;20042;-70
2022/08/01 04:17:54;;;;;;;12.47;6.90;;;;;;;-145.18;100.00;46652.59;5010253;28;20034;-71
2022/08/01 04:20:20;;;;;;;13.80;6.83;;;;;;;-145.18;100.00;46640.88;5006768;28;20495;-70
2022/08/01 04:22:46;;;;;;;14.83;7.07;;;;;;;-145.18;100.00;46654.53;5010412;28;20022;-71
2022/08/01 04:25:21;;;;;;;12.17;6.90;;;;;;;-145.18;100.00;46652.59;5010086;28;20022;-71
2022/08/01 04:27:49;;;;;;;11.30;7.03;;;;;;;-145.18;100.00;46654.53;4986844;28;20076;-71
2022/08/01 04:30:16;;;;;;;9.67;6.67;;;;;;;-145.18;100.00;46652.59;5010160;28;20049;-70
2022/08/01 04:32:44;;;;;;;11.13;6.70;;;;;;;-145.18;100.00;46642.81;5009028;28;20038;-71
2022/08/01 04:35:16;;;;;;;11.53;7.40;;;;;;;-145.18;100.00;46650.63;5009416;28;20053;-71
2022/08/01 04:37:44;;;;;;;16.00;7.23;;;;;;;-145.18;100.00;46650.63;4991526;28;20402;-71
2022/08/01 04:40:11;;;;;;;18.43;7.33;;;;;;;-145.18;100.00;46650.63;5009152;28;20052;-71
2022/08/01 04:42:36;;;;;;;11.67;7.30;;;;;;;-145.18;100.00;46638.91;4992342;28;20026;-70
2022/08/01 04:45:01;;;;;;;10.73;7.03;;;;;;;-145.18;100.00;46654.53;5009801;28;20041;-71
2022/08/01 04:47:28;;;;;;;14.83;7.60;;;;;;;-145.18;100.00;46652.59;4992343;28;20034;-71
2022/08/01 04:49:56;;;;;;;13.37;6.87;;;;;;;-145.18;100.00;46652.59;5010253;28;20041;-71
2022/08/01 04:52:22;;;;;;;15.77;8.53;;;;;;;-145.18;100.00;46652.59;5010233;28;20045;-71
2022/08/01 04:54:47;;;;;;;14.37;6.80;;;;;;;-145.18;100.00;46650.63;5010245;28;20601;-71
2022/08/01 04:57:13;;;;;;;9.77;7.03;;;;;;;-145.18;100.00;46652.59;5010221;28;20040;-72
2022/08/01 04:59:42;;;;;;;14.33;7.23;;;;;;;-145.18;100.00;46652.59;5010321;28;20080;-72
2022/08/01 05:02:16;;;;;;;10.73;6.13;;;;;;;-145.18;100.00;46640.88;5009932;28;20026;-72
2022/08/01 05:04:42;;;;;;;9.97;5.83;;;;;;;-145.18;100.00;46640.88;5010045;28;20112;-72
2022/08/01 05:07:08;;;;;;;11.70;5.93;;;;;;;-145.18;100.00;46652.59;5010556;28;20033;-71
2022/08/01 05:09:38;;;;;;;12.70;6.60;;;;;;;-145.18;100.00;46652.59;5009955;28;20029;-71
2022/08/01 05:12:05;;;;;;;8.13;5.60;;;;;;;-145.18;100.00;46652.59;5010433;28;20033;-71
2022/08/01 05:14:32;;;;;;;9.97;5.47;;;;;;;-145.18;100.00;46652.59;5009848;28;20069;-72
2022/08/01 05:17:04;;;;;;;7.00;5.30;;;;;;;-145.18;100.00;46640.88;5010096;28;20389;-72
2022/08/01 05:19:33;;;;;;;10.83;5.70;;;;;;;-145.18;100.00;46652.59;5009237;28;20030;-72
2022/08/01 05:22:00;;;;;;;10.67;6.00;;;;;;;-145.18;100.00;46648.69;4992822;28;20045;-72
2022/08/01 05:24:29;;;;;;;14.27;6.93;;;;;;;-145.18;100.00;46650.63;5005079;28;20041;-72
2022/08/01 05:26:55;;;;;;;8.83;5.83;;;;;;;-145.18;100.00;46654.53;4992604;28;20029;-72
2022/08/01 05:29:21;;;;;;;8.23;4.47;;;;;;;-145.18;100.00;46654.53;5009043;28;20038;-72
2022/08/01 05:31:46;;;;;;;7.37;4.63;;;;;;;-145.18;100.00;46650.63;4992010;28;20517;-72
2022/08/01 05:34:11;;;;;;;6.90;4.50;;;;;;;-145.18;100.00;46650.63;5025659;28;20163;-72
2022/08/01 05:36:37;;;;;;;8.40;4.90;;;;;;;-145.18;100.00;46650.63;5029920;28;20684;-72
2022/08/01 05:39:03;;;;;;;11.17;4.97;;;;;;;-145.18;100.00;46650.63;5010157;28;20021;-72
2022/08/01 05:41:29;;;;;;;8.40;5.47;;;;;;;-145.18;100.00;46652.59;5010490;28;20113;-72
2022/08/01 05:43:55;;;;;;;7.33;5.20;;;;;;;-145.18;100.00;46648.69;5009387;28;20034;-73
2022/08/01 05:46:20;;;;;;;47.00;6.80;;;;;;;-145.18;100.00;46650.63;4992483;28;20585;-72
2022/08/01 05:48:45;;;;;;;9.50;5.03;;;;;;;-145.18;100.00;46654.53;5010043;28;20434;-73
2022/08/01 05:51:11;;;;;;;9.20;5.63;;;;;;;-145.18;100.00;46654.53;5010096;28;20038;-73
2022/08/01 05:53:36;;;;;;;7.43;4.60;;;;;;;-145.18;100.00;46652.59;5009932;28;20105;-73
2022/08/01 05:56:02;;;;;;;12.23;5.50;;;;;;;-145.18;100.00;46654.53;5010381;28;20068;-72
2022/08/01 05:58:27;;;;;;;6.13;4.37;;;;;;;-145.18;100.00;46652.59;5012934;28;20029;-72
2022/08/01 06:00:52;;;;;;;9.40;4.47;;;;;;;-145.18;100.00;46656.50;5013882;28;20038;-75
2022/08/01 06:03:18;;;;;;;6.97;4.50;;;;;;;-145.18;100.00;46660.41;5012913;28;20529;-75
2022/08/01 06:05:44;;;;;;;6.40;4.10;;;;;;;-145.18;100.00;46656.50;5014030;28;20036;-75
2022/08/01 06:08:09;;;;;;;8.10;4.20;;;;;;;-145.18;100.00;46654.53;5013011;28;20025;-75
2022/08/01 06:10:34;;;;;;;11.07;4.00;;;;;;;-145.18;100.00;46654.53;5013303;28;20049;-75
2022/08/01 06:13:02;;;;;;;5.33;4.07;;;;;;;-145.18;100.00;46656.50;5011656;28;20030;-75
2022/08/01 06:15:29;;;;;;;8.80;3.90;;;;;;;-145.18;100.00;46656.50;5013182;28;20030;-77
2022/08/01 06:17:54;;;;;;;5.03;3.70;;;;;;;-145.18;100.00;46654.53;5012536;28;20030;-72
2022/08/01 06:20:20;;;;;;;5.70;3.30;;;;;;;-145.18;100.00;46619.38;5012996;28;20026;-75
2022/08/01 06:22:45;;;;;;;6.90;3.80;;;;;;;-145.18;100.00;46619.38;5013103;28;20494;-75
2022/08/01 06:25:10;;;;;;;5.80;3.63;;;;;;;-145.18;100.00;46615.47;5013117;28;20034;-75
2022/08/01 06:27:36;;;;;;;4.90;3.90;;;;;;;-145.18;100.00;46619.38;5013051;28;20073;-77
2022/08/01 06:30:03;;;;;;;7.57;3.27;;;;;;;-145.18;100.00;46621.31;5012165;28;20037;-77
2022/08/01 06:32:29;;;;;;;6.20;3.10;;;;;;;-145.18;100.00;46617.41;5013426;28;20030;-77
2022/08/01 06:34:55;;;;;;;6.43;3.57;;;;;;;-145.18;100.00;46617.41;5012736;28;20029;-74
2022/08/01 06:37:21;;;;;;;7.20;3.90;;;;;;;-145.18;100.00;46619.38;4995295;28;20618;-75
2022/08/01 06:39:46;;;;;;;4.80;4.27;;;;;;;-145.18;100.00;46619.38;5012681;28;20117;-77
2022/08/01 06:42:12;;;;;;;7.97;4.40;;;;;;;-145.18;100.00;46617.41;5012338;28;20116;-76
2022/08/01 06:44:37;;;;;;;7.57;4.20;;;;;;;-145.18;100.00;46621.31;5012399;28;20521;-76
2022/08/01 06:47:03;;;;;;;7.07;4.97;;;;;;;-145.18;100.00;46619.38;5012578;28;20025;-76
2022/08/01 06:49:28;;;;;;;6.20;5.53;;;;;;;-145.18;100.00;46619.38;5012519;28;20033;-75
2022/08/01 06:51:53;;;;;;;8.30;5.63;;;;;;;-145.18;100.00;46621.31;5012662;28;20029;-75
2022/08/01 06:54:19;;;;;;;8.10;5.67;;;;;;;-145.18;100.00;46615.47;5011577;28;20041;-74
2022/08/01 06:56:44;;;;;;;7.23;5.10;;;;;;;-145.18;100.00;46621.31;5012312;28;20068;-75
2022/08/01 06:59:10;;;;;;;6.97;5.37;;;;;;;-145.18;100.00;46627.19;5011550;28;20093;-74
2022/08/01 07:01:35;;;;;;;5.60;4.93;;;;;;;-145.18;100.00;46623.28;4993992;28;20042;-73
2022/08/01 07:04:02;;;;;;;5.90;4.67;;;;;;;-145.18;100.00;46625.22;5011735;28;20050;-73
2022/08/01 07:06:27;;;;;;;7.60;4.30;;;;;;;-145.18;100.00;46625.22;5012487;28;20030;-73
2022/08/01 07:08:53;;;;;;;9.07;4.83;;;;;;;-145.18;100.00;46625.22;5011010;28;20041;-72
2022/08/01 07:11:19;;;;;;;5.43;3.90;;;;;;;-145.18;100.00;46623.28;5011487;28;20452;-72
2022/08/01 07:13:45;;;;;;;5.83;4.00;;;;;;;-145.18;100.00;46629.13;5010135;28;20041;-72
2022/08/01 07:16:14;;;;;;;5.20;3.67;;;;;;;-145.18;100.00;46633.06;5011280;28;20045;-72
2022/08/01 07:18:40;;;;;;;6.63;3.10;;;;;;;-145.18;100.00;46633.06;5010936;28;20033;-72
2022/08/01 07:21:05;;;;;;;6.53;3.93;;;;;;;-145.18;100.00;46629.13;5011197;28;20038;-72
2022/08/01 07:23:31;;;;;;;6.37;4.17;;;;;;;-145.18;100.00;46635.00;5010776;28;20096;-72
2022/08/01 07:25:56;;;;;;;4.83;4.07;;;;;;;-145.18;100.00;46636.94;5011380;28;20538;-72
2022/08/01 07:28:21;;;;;;;5.37;4.07;;;;;;;-145.18;100.00;46635.00;5010137;28;20038;-73
2022/08/01 07:30:47;;;;;;;5.67;4.03;;;;;;;-145.18;100.00;46635.00;5011651;28;20037;-73
2022/08/01 07:33:12;;;;;;;5.30;3.37;;;;;;;-145.18;100.00;46638.91;5011043;28;20046;-73
2022/08/01 07:35:39;;;;;;;9.53;3.70;;;;;;;-145.18;100.00;46640.88;5010869;28;20030;-71
2022/08/01 07:38:05;;;;;;;6.30;4.40;;;;;;;-145.18;100.00;46636.94;5010297;28;20084;-73
2022/08/01 07:40:31;;;;;;;5.87;3.77;;;;;;;-145.18;100.00;46642.81;5011456;28;20042;-74
2022/08/01 07:42:56;;;;;;;5.60;3.10;;;;;;;-145.18;100.00;46636.94;5011155;28;20461;-72
2022/08/01 07:45:21;;;;;;;5.00;2.80;;;;;;;-145.18;100.00;46638.91;4992219;28;20045;-72
2022/08/01 07:47:49;;;;;;;7.67;3.13;;;;;;;-145.18;100.00;46640.88;5011102;28;20042;-72
2022/08/01 07:50:15;;;;;;;4.50;2.80;;;;;;;-145.18;100.00;46644.78;5009797;28;20064;-72
2022/08/01 07:52:41;;;;;;;5.03;2.83;;;;;;;-145.18;100.00;46640.88;5010946;28;20045;-72
2022/08/01 07:55:08;;;;;;;7.27;3.50;;;;;;;-145.18;100.00;46648.69;5010588;28;20553;-73
2022/08/01 07:57:33;;;;;;;10.90;3.53;;;;;;;-145.18;100.00;46642.81;5011270;28;20042;-72
2022/08/01 07:59:58;;;;;;;5.83;4.17;;;;;;;-145.18;100.00;46638.91;5010700;28;20446;-71
2022/08/01 08:02:24;;;;;;;5.93;3.87;;;;;;;-145.18;100.00;46636.94;5010797;28;20057;-71
2022/08/01 08:04:49;;;;;;;6.17;3.70;;;;;;;-145.18;100.00;46638.91;5011251;28;20033;-71
2022/08/01 08:07:15;;;;;;;6.83;3.50;;;;;;;-145.18;100.00;46635.00;5010785;28;20040;-71
2022/08/01 08:09:40;;;;;;;7.90;3.70;;;;;;;-145.18;100.00;46635.00;5010756;28;20671;-71
2022/08/01 08:12:06;;;;;;;6.07;3.90;;;;;;;-145.18;100.00;46635.00;5010866;28;20033;-71
2022/08/01 08:14:31;;;;;;;9.57;2.90;;;;;;;-145.18;100.00;46636.94;5010344;28;20030;-71
2022/08/01 08:16:57;;;;;;;8.70;3.63;;;;;;;-145.18;100.00;46629.13;5010806;28;20045;-70
2022/08/01 08:19:22;;;;;;;15.30;4.60;;;;;;;-145.18;100.00;46631.09;5010561;28;20112;-71
2022/08/01 08:21:47;;;;;;;13.27;4.83;;;;;;;-145.18;100.00;46627.19;5010508;28;20034;-71
2022/08/01 08:24:23;;;;;;;12.37;4.90;;;;;;;-145.18;100.00;46623.28;5009909;28;20033;-71
2022/08/01 08:26:52;;;;;;;12.90;4.60;;;;;;;-145.18;100.00;46621.31;5011444;28;20124;-70
2022/08/01 08:29:19;;;;;;;15.37;4.83;;;;;;;-145.18;100.00;46619.38;5010849;28;20025;-70
2022/08/01 08:31:44;;;;;;;14.17;4.90;;;;;;;-145.18;100.00;46619.38;5011187;28;20034;-70
2022/08/01 08:34:10;;;;;;;14.30;4.57;;;;;;;-145.18;100.00;46617.41;5010415;28;20030;-70
2022/08/01 08:36:35;;;;;;;14.63;4.33;;;;;;;-145.18;100.00;46617.41;5010967;28;20038;-70
2022/08/01 08:39:01;;;;;;;15.53;5.43;;;;;;;-145.18;100.00;46617.41;5010175;28;20454;-71
2022/08/01 08:41:26;;;;;;;17.50;5.00;;;;;;;-145.18;100.00;46615.47;4992695;28;20486;-72
2022/08/01 08:43:53;;;;;;;20.93;5.23;;;;;;;-145.18;100.00;46613.50;5008973;28;20037;-70
2022/08/01 08:46:19;;;;;;;17.27;5.63;;;;;;;-145.18;100.00;46613.50;5007898;28;20022;-70
2022/08/01 08:48:45;;;;;;;17.03;5.60;;;;;;;-145.18;100.00;46613.50;5009965;28;20036;-71
2022/08/01 08:51:11;;;;;;;16.97;5.10;;;;;;;-145.18;100.00;46611.56;5010297;28;20489;-71
2022/08/01 08:53:39;;;;;;;11.87;3.70;;;;;;;-145.18;100.00;46611.56;5009791;28;20030;-71
2022/08/01 08:56:07;;;;;;;11.40;3.87;;;;;;;-145.18;100.00;46611.56;5007866;28;20101;-71
2022/08/01 08:58:37;;;;;;;10.83;3.40;;;;;;;-145.18;100.00;46609.59;5009988;28;20101;-71
2022/08/01 09:01:05;;;;;;;6.53;3.10;;;;;;;-145.18;100.00;46611.56;5009992;28;20041;-70
2022/08/01 09:03:31;;;;;;;9.97;3.10;;;;;;;-145.18;100.00;46613.50;5008561;28;20068;-71
2022/08/01 09:05:56;;;;;;;7.37;3.27;;;;;;;-145.18;100.00;46609.59;5009422;28;20491;-71
2022/08/01 09:08:21;;;;;;;10.47;3.60;;;;;;;-145.18;100.00;46613.50;5010187;28;20037;-71
2022/08/01 09:10:47;;;;;;;8.53;3.70;;;;;;;-145.18;100.00;46609.59;5010061;28;20124;-72
2022/08/01 09:13:14;;;;;;;8.83;3.37;;;;;;;-145.18;100.00;46609.59;5007377;28;20042;-72
2022/08/01 09:15:39;;;;;;;12.13;3.90;;;;;;;-145.18;100.00;46611.56;4992531;28;20030;-72
2022/08/01 09:18:06;;;;;;;12.93;4.30;;;;;;;-145.18;100.00;46611.56;5026348;28;20017;-71
2022/08/01 09:20:31;;;;;;;18.97;5.17;;;;;;;-145.18;100.00;46615.47;5015104;28;20494;-71
2022/08/01 09:22:56;;;;;;;17.03;5.57;;;;;;;-145.18;100.00;46615.47;5026155;28;20057;-71
2022/08/01 09:25:22;;;;;;;15.77;5.03;;;;;;;-145.18;100.00;46611.56;5022867;28;20048;-71
2022/08/01 09:27:47;;;;;;;12.87;4.10;;;;;;;-145.18;100.00;46613.50;5010101;28;20034;-71
2022/08/01 09:30:18;;;;;;;18.80;4.80;;;;;;;-145.18;100.00;46613.50;5009457;28;20425;-71
2022/08/01 09:33:04;;;;;;;25.00;6.43;;;;;;;-145.18;100.00;46615.47;5011911;28;20029;-71
2022/08/01 09:35:34;;;;;;;13.90;4.17;;;;;;;-145.18;100.00;46613.50;4995880;28;20034;-72
2022/08/01 09:38:19;;;;;;;14.37;4.03;;;;;;;-145.18;100.00;46619.38;5019670;28;20466;-71
2022/08/01 09:40:52;;;;;;;14.23;3.80;;;;;;;-145.18;100.00;46619.38;5024461;28;20065;-72
2022/08/01 09:43:19;;;;;;;11.90;3.77;;;;;;;-145.18;100.00;46619.38;5013524;28;20025;-72
2022/08/01 09:45:45;;;;;;;10.97;3.50;;;;;;;-145.18;100.00;46623.28;5013265;28;20033;-72
2022/08/01 09:48:15;;;;;;;10.53;3.40;;;;;;;-145.18;100.00;46625.22;5012939;28;20034;-72
2022/08/01 09:50:42;;;;;;;11.77;4.30;;;;;;;-145.18;100.00;46629.13;5013484;28;20375;-72
2022/08/01 09:53:09;;;;;;;16.13;3.93;;;;;;;-145.18;100.00;46629.13;5013492;28;20331;-72
2022/08/01 09:55:34;;;;;;;11.03;3.37;;;;;;;-145.18;100.00;46631.09;5013056;28;20489;-72
2022/08/01 09:58:00;;;;;;;10.03;2.80;;;;;;;-145.18;100.00;46635.00;5013535;28;20038;-72
2022/08/01 10:00:26;;;;;;;11.73;2.67;;;;;;;-145.18;100.00;46644.78;5013340;28;20121;-72
2022/08/01 10:02:52;;;;;;;12.23;2.50;;;;;;;-145.18;100.00;46650.63;5013474;28;20129;-72
2022/08/01 10:05:19;;;;;;;10.17;2.50;;;;;;;-145.18;100.00;46650.63;5013307;28;20546;-73
2022/08/01 10:07:59;;;;;;;10.00;2.40;;;;;;;-145.18;100.00;46658.44;5013850;28;20065;-73
2022/08/01 10:10:26;;;;;;;9.40;2.70;;;;;;;-145.18;100.00;46664.31;5013027;28;20482;-73
2022/08/01 10:12:51;;;;;;;9.33;2.40;;;;;;;-145.18;100.00;46670.16;5013756;28;20045;-73
2022/08/01 10:15:18;;;;;;;9.47;2.77;;;;;;;-145.18;100.00;46676.03;5025559;28;20037;-73
2022/08/01 10:17:55;;;;;;;7.17;2.50;;;;;;;-145.18;100.00;46676.03;5033377;28;20029;-72
2022/08/01 10:20:23;;;;;;;7.13;2.47;;;;;;;-145.18;100.00;46677.97;5032392;28;20698;-73
2022/08/01 10:22:51;;;;;;;11.87;2.30;;;;;;;-145.18;100.00;46681.88;5033214;28;20029;-73
2022/08/01 10:25:19;;;;;;;11.70;2.27;;;;;;;-145.18;100.00;46685.78;5032460;28;20040;-73
2022/08/01 10:27:47;;;;;;;10.63;2.20;;;;;;;-145.18;100.00;46687.75;5032978;28;20064;-73
2022/08/01 10:30:13;;;;;;;16.70;3.20;;;;;;;-145.18;100.00;46681.88;5030352;28;20401;-72
2022/08/01 10:32:41;;;;;;;10.43;2.30;;;;;;;-145.18;100.00;46683.84;5012102;28;20092;-74
2022/08/01 10:35:08;;;;;;;6.67;2.00;;;;;;;-145.18;100.00;46681.88;5011741;28;20062;-72
2022/08/01 10:37:37;;;;;;;9.27;2.50;;;;;;;-145.18;100.00;46683.84;5010367;28;20041;-73
2022/08/01 10:40:04;;;;;;;13.40;2.53;;;;;;;-145.18;100.00;46681.88;5009486;28;20042;-72
2022/08/01 10:42:30;;;;;;;10.57;2.70;;;;;;;-145.18;100.00;46679.94;5011707;28;20034;-73
2022/08/01 10:44:57;;;;;;;12.07;2.20;;;;;;;-145.18;100.00;46685.78;5011415;28;20474;-72
2022/08/01 10:47:34;;;;;;;8.63;2.03;;;;;;;-145.18;100.00;46687.75;5012667;28;20109;-72
2022/08/01 10:50:13;;;;;;;4.50;1.80;;;;;;;-145.18;100.00;46683.84;5012322;28;20030;-72
2022/08/01 10:52:39;;;;;;;8.07;1.80;;;;;;;-145.18;100.00;46679.94;5011583;28;20095;-72
2022/08/01 10:55:06;;;;;;;5.43;1.77;;;;;;;-145.18;100.00;46660.41;4994286;28;20117;-72
2022/08/01 10:57:43;;;;;;;3.87;1.30;;;;;;;-145.18;100.00;46668.22;5011995;28;20037;-72
2022/08/01 11:00:09;;;;;;;3.63;1.70;;;;;;;-145.18;100.00;46670.16;5011382;28;20108;-72
2022/08/01 11:02:40;;;;;;;6.40;1.50;;;;;;;-145.18;100.00;46603.75;5006262;28;20582;-72
2022/08/01 11:05:21;;;;;;;6.90;1.60;;;;;;;-145.18;100.00;46547.09;4992505;28;20506;-73
2022/08/01 11:07:51;;;;;;;9.50;2.00;;;;;;;-145.18;100.00;46560.78;4993003;28;20031;-73
2022/08/01 11:10:19;;;;;;;6.80;1.70;;;;;;;-145.18;100.00;46560.78;4991238;28;20081;-72